Historyczne dane pomiarowe

Dodano dane terminowe – wersja testowa.

Dane z okresu 1951-2019

Wersja bazy: 1.34 [2019-03-16, lista zmian], aktualizacja planowana na 2019-04-15

Dane meteo z obszaru Polski uzyskane na podstawie danych udostępnionych przez Instytut Meteorologii i Gospodarki Wodnej – Państwowy Instytut Badawczy.

 

Wybierz Datę:    

       

TemperaturaWilgotnośćWiatrCiśnienieOpadyŚniegCzas trwania zjawisk
 Stacja t tx tn tng RH VA  wxwx mslp ppp RRR   cm mm wxwxwxwxwxwxwx
1987-08-14 11.6 20.1 4.8 2.2 78.8- 7.7 1.7---- 0.0------------
1987-08-13 11.6 17.7 6.0 5.0 76.0- 6.0 0.3---- 0.0------------
1987-08-12 10.9 17.5 4.5 3.0 82.3- 3.3 0.3---- 0.0------------
1987-08-11 13.0 18.5 8.8 7.1 82.3- 5.7 0.7---- 0.3------------
1987-08-10 14.0 18.8 12.2 11.7 93.3- 8.0 0.0---- 7.3------------
1987-08-09 13.3 22.7 4.0 2.5 75.8- 4.0 1.3---- 1.4------------
1987-08-08 11.7 19.0 6.1 3.8 78.8- 5.3 0.7---- 0.0------------
1987-08-07 9.5 15.2 2.0 0.8 80.0- 5.7 3.0---- 0.3------------
1987-08-06 10.5 15.3 8.7 8.9 91.8- 7.0 1.7---- 2.4------------
1987-08-05 12.6 16.3 9.7 8.2 87.3- 8.0 0.0---- 6.7------------
1987-08-04 12.4 17.2 8.8 7.9 99.5- 7.3 0.0---- 4.8------------
1987-08-03 14.8 20.7 10.2 9.1 77.8- 5.7 0.7---- 0.0------------
1987-08-02 14.1 18.9 11.8 11.2 81.5- 6.3 0.7---- 1.6------------
1987-08-01 14.8 22.3 8.7 7.8 77.0- 7.3 3.0---- 1.3------------
1987-07-31 15.5 19.7 10.8 9.1 84.5- 8.0 0.0---- 6.0------------
1987-07-30 16.2 23.2 9.7 8.0 79.0- 1.7 1.7---- 0.0------------
1987-07-29 12.8 18.8 9.0 8.9 80.5- 3.0 0.3---- 0.0------------
1987-07-28 12.9 16.3 9.6 8.3 89.0- 7.3 0.7---- 4.6------------
1987-07-27 12.1 18.2 7.9 6.8 76.5- 4.7 2.3---- 0.5------------
1987-07-26 14.3 20.1 11.8 10.7 99.5- 8.0 0.0---- 14.1------------
1987-07-25 18.3 23.3 15.1 14.2 92.5- 7.3 0.3---- 1.5------------
1987-07-24 20.2 30.2 13.9 11.7 85.8- 2.3 0.7---- 18.1------------
1987-07-23 20.5 28.3 13.8 11.4 77.8- 5.0 0.7---- 0.5------------
1987-07-22 18.8 26.6 12.2 10.1 84.5- 5.0 2.3---- 0.9------------
1987-07-21 20.6 29.8 11.7 13.0 75.0- 1.7 1.3---- 0.0------------
1987-07-20 20.9 29.3 15.8 12.6 83.8- 5.3 2.3---- 0.0------------
1987-07-19 22.4 31.0 14.0 11.9 75.3- 2.7 0.7---- 0.0------------
1987-07-18 22.6 30.1 13.0 10.3 74.5- 3.3 1.3---- 0.0------------
1987-07-17 20.7 27.6 12.6 10.3 76.5- 5.0 2.3---- 0.0------------
1987-07-16 19.4 27.9 9.4 9.3 80.0- 3.3 0.0---- 0.0------------
1987-07-15 16.0 25.2 6.7 5.3 73.0- 0.3 0.3---- 0.0------------
1987-07-14 16.8 22.3 10.6 8.1 68.5- 4.0 0.3---- 0.0------------
1987-07-13 19.1 24.6 14.6 13.6 79.3- 7.3 0.7---- 0.0------------
1987-07-12 18.5 28.4 8.0 5.3 73.3- 3.0 1.3---- 4.6------------
1987-07-11 15.0 24.3 5.5 3.7 73.8- 3.3 0.3---- 0.0------------
1987-07-10 15.8 20.2 10.1 9.2 65.3- 1.7 1.0---- 0.0------------
1987-07-09 16.2 26.4 7.5 7.1 89.3- 6.7 0.7---- 1.7------------
1987-07-08 18.6 28.0 7.5 5.1 65.0- 0.0 0.0---- 0.0------------
1987-07-07 15.7 25.9 5.4 2.7 69.3- 0.0 0.3---- 0.0------------
1987-07-06 15.1 22.0 8.0 5.3 74.0- 2.7 0.3---- 0.0------------
1987-07-05 15.0 20.3 12.3 10.6 83.5- 7.7 0.3---- 0.1------------
1987-07-04 19.0 23.6 12.6 10.8 73.0- 4.7 0.7---- 1.2------------
1987-07-03 19.0 22.7 15.8 16.0 74.8- 8.0 1.3---- 0.0------------
1987-07-02 20.1 25.3 14.9 12.3 90.0- 8.0 1.0---- 0.0------------
1987-07-01 22.2 30.2 14.3 11.6 78.3- 0.0 1.0---- 0.0------------
1987-06-30 20.5 29.4 13.4 11.1 80.8- 2.7 0.0---- 0.0------------
1987-06-29 19.4 25.2 13.0 11.2 81.5- 2.0 0.0---- 0.0------------
1987-06-28 19.2 25.2 14.2 13.3 77.0- 3.3 0.7---- 0.1------------
1987-06-27 18.2 25.6 12.1 11.3 85.8- 7.0 0.7---- 3.9------------
1987-06-26 13.9 21.8 5.2 3.2 76.3- 2.0 2.0---- 0.0------------
1987-06-25 14.3 18.7 11.3 10.1 78.8- 5.7 1.0---- 0.0------------
1987-06-24 15.3 20.7 11.4 10.7 84.3- 6.7 0.0---- 0.8------------
1987-06-23 16.2 19.1 12.7 11.6 76.8- 7.7 1.0---- 1.1------------
1987-06-22 15.2 20.9 9.8 9.1 84.0- 8.0 0.0---- 0.0------------
1987-06-21 14.8 22.7 6.6 4.8 77.0- 5.0 0.7---- 0.0------------
1987-06-20 12.6 20.8 4.1 2.3 73.3- 1.3 0.7---- 0.0------------
1987-06-19 11.5 16.2 6.8 6.3 72.0- 6.7 0.0---- 0.0------------
1987-06-18 9.5 16.6 4.7 3.1 83.3- 8.0 0.7---- 0.0------------
1987-06-17 10.9 14.6 8.3 8.7 82.3- 8.0 0.3---- 0.1------------
1987-06-16 15.9 21.9 12.3 11.5 71.5- 8.0 1.7---- 1.2------------
383.7 ms

 

Źródłem pochodzenia danych jest Instytut Meteorologii i Gospodarki Wodnej – Państwowy Instytut Badawczy. Dane Instytutu Meteorologii i Gospodarki Wodnej – Państwowego Instytutu Badawczego zostały przetworzone.

Dane źródłowe można odnaleźć na stronie https://dane.imgw.pl